createdAt,value
2019-06-01T00:01:54.370Z,7.47
2019-06-01T00:03:56.969Z,9.10
2019-06-01T00:08:00.823Z,8.60
2019-06-01T00:10:04.626Z,7.30
2019-06-01T00:12:06.881Z,7.17
2019-06-01T00:14:09.167Z,7.65
2019-06-01T00:16:11.518Z,7.30
2019-06-01T00:18:13.532Z,8.38
2019-06-01T00:20:16.879Z,7.33
2019-06-01T00:22:19.320Z,6.05
2019-06-01T00:26:23.168Z,6.50
2019-06-01T00:28:25.632Z,9.18
2019-06-01T00:30:28.069Z,4.92
2019-06-01T00:34:32.313Z,8.15
2019-06-01T00:36:34.388Z,6.60
2019-06-01T00:38:36.573Z,9.08
2019-06-01T00:40:38.854Z,9.98
2019-06-01T00:42:41.946Z,7.80
2019-06-01T00:44:44.341Z,7.60
2019-06-01T00:46:46.747Z,7.12
2019-06-01T00:48:49.989Z,5.87
2019-06-01T00:50:53.219Z,7.80
2019-06-01T00:52:55.690Z,5.87
2019-06-01T00:54:57.684Z,5.83
2019-06-01T00:56:59.696Z,6.17
2019-06-01T00:59:01.985Z,5.62
2019-06-01T01:01:03.992Z,7.03
2019-06-01T01:03:06.086Z,7.37
2019-06-01T01:05:13.579Z,7.53
2019-06-01T01:07:15.595Z,5.87
2019-06-01T01:09:19.411Z,5.12
2019-06-01T01:11:22.144Z,7.55
2019-06-01T01:13:25.601Z,9.58
2019-06-01T01:15:27.643Z,7.92
2019-06-01T01:17:31.103Z,8.08
2019-06-01T01:19:33.123Z,5.90
2019-06-01T01:21:35.192Z,8.45
2019-06-01T01:23:37.518Z,10.60
2019-06-01T01:25:39.537Z,7.95
2019-06-01T01:27:41.560Z,8.35
2019-06-01T01:29:43.668Z,8.83
2019-06-01T01:31:47.013Z,9.65
2019-06-01T01:33:49.621Z,13.78
2019-06-01T01:37:56.587Z,6.65
2019-06-01T01:39:59.821Z,8.65
2019-06-01T01:42:02.189Z,9.60
2019-06-01T01:44:04.306Z,6.22
2019-06-01T01:48:08.775Z,9.35
2019-06-01T01:50:11.284Z,8.58
2019-06-01T01:54:15.276Z,7.25
2019-06-01T01:56:17.316Z,7.55
2019-06-01T01:58:19.396Z,13.25
2019-06-01T02:00:43.782Z,9.98
2019-06-01T02:02:45.796Z,8.13
2019-06-01T02:04:48.052Z,8.33
2019-06-01T02:06:50.279Z,10.40
2019-06-01T02:08:53.481Z,12.45
2019-06-01T02:10:57.381Z,8.18
2019-06-01T02:13:00.071Z,9.03
2019-06-01T02:17:04.735Z,9.10
2019-06-01T02:19:06.965Z,8.60
2019-06-01T02:21:09.029Z,8.48
2019-06-01T02:23:11.356Z,10.55
2019-06-01T02:25:13.862Z,9.13
2019-06-01T02:29:17.818Z,9.95
2019-06-01T02:31:37.491Z,9.98
2019-06-01T02:33:24.159Z,10.58
2019-06-01T02:35:26.389Z,9.73
2019-06-01T02:37:28.878Z,9.65
2019-06-01T02:41:32.528Z,9.65
2019-06-01T02:43:34.980Z,8.23
2019-06-01T02:45:37.878Z,9.38
2019-06-01T02:47:40.358Z,11.22
2019-06-01T02:51:44.538Z,9.13
2019-06-01T02:53:46.840Z,10.50
2019-06-01T02:55:49.283Z,10.10
2019-06-01T02:59:53.517Z,11.22
2019-06-01T03:02:00.233Z,10.90
2019-06-01T03:04:03.347Z,11.33
2019-06-01T03:06:07.664Z,11.18
2019-06-01T03:08:11.023Z,9.38
2019-06-01T03:10:13.227Z,12.63
2019-06-01T03:12:18.290Z,11.28
2019-06-01T03:14:23.594Z,8.10
2019-06-01T03:16:30.450Z,12.18
2019-06-01T03:18:35.977Z,11.22
2019-06-01T03:20:39.906Z,11.57
2019-06-01T03:22:42.059Z,11.00
2019-06-01T03:24:47.169Z,13.80
2019-06-01T03:26:51.144Z,9.85
2019-06-01T03:28:53.638Z,9.00
2019-06-01T03:32:57.742Z,9.95
2019-06-01T03:35:00.546Z,8.05
2019-06-01T03:37:02.999Z,8.05
2019-06-01T03:39:06.148Z,8.33
2019-06-01T03:41:08.300Z,9.33
2019-06-01T03:43:12.716Z,8.55
2019-06-01T03:45:15.028Z,12.40
2019-06-01T03:47:17.070Z,8.78
2019-06-01T03:49:19.207Z,9.05
2019-06-01T03:51:21.417Z,7.08
2019-06-01T03:53:23.575Z,7.05
2019-06-01T03:55:25.616Z,9.48
2019-06-01T03:57:28.113Z,6.80
2019-06-01T04:01:32.212Z,7.87
2019-06-01T04:03:34.504Z,7.35
2019-06-01T04:05:36.514Z,7.37
2019-06-01T04:07:39.157Z,7.12
2019-06-01T04:09:41.419Z,6.92
2019-06-01T04:11:44.513Z,8.43
2019-06-01T04:13:46.994Z,6.15
2019-06-01T04:15:49.234Z,5.75
2019-06-01T04:17:51.331Z,7.45
2019-06-01T04:19:54.069Z,8.80
2019-06-01T04:21:56.645Z,8.83
2019-06-01T04:26:00.374Z,7.60
2019-06-01T04:28:04.464Z,6.30
2019-06-01T04:30:07.237Z,5.65
2019-06-01T04:32:10.751Z,8.30
2019-06-01T04:34:13.207Z,11.30
2019-06-01T04:36:15.261Z,8.23
2019-06-01T04:38:17.316Z,7.12
2019-06-01T04:40:19.620Z,6.83
2019-06-01T04:42:21.666Z,7.30
2019-06-01T04:44:25.398Z,8.58
2019-06-01T04:46:27.736Z,10.80
2019-06-01T04:48:29.771Z,8.78
2019-06-01T04:50:32.263Z,9.70
2019-06-01T04:52:34.946Z,9.03
2019-06-01T04:54:37.397Z,9.65
2019-06-01T04:56:40.421Z,9.83
2019-06-01T04:58:43.077Z,8.93
2019-06-01T05:00:45.090Z,7.47
2019-06-01T05:02:47.102Z,4.78
2019-06-01T05:04:49.417Z,9.43
2019-06-01T05:06:51.681Z,5.12
2019-06-01T05:08:53.716Z,8.15
2019-06-01T05:10:56.365Z,7.70
2019-06-01T05:12:58.923Z,8.93
2019-06-01T05:15:01.291Z,7.30
2019-06-01T05:17:05.767Z,10.32
2019-06-01T05:19:08.237Z,9.03
2019-06-01T05:21:10.582Z,7.15
2019-06-01T05:25:15.372Z,5.37
2019-06-01T05:27:17.569Z,4.95
2019-06-01T05:29:19.956Z,5.08
2019-06-01T05:31:25.232Z,6.22
2019-06-01T05:33:36.877Z,6.40
2019-06-01T05:35:30.889Z,5.75
2019-06-01T05:39:34.809Z,8.75
2019-06-01T05:41:37.085Z,6.00
2019-06-01T05:43:39.276Z,4.70
2019-06-01T05:45:41.629Z,5.60
2019-06-01T05:47:43.660Z,4.10
2019-06-01T05:49:46.051Z,7.47
2019-06-01T05:51:48.301Z,5.10
2019-06-01T05:53:50.942Z,6.50
2019-06-01T05:57:55.011Z,5.28
2019-06-01T05:59:57.135Z,5.78
2019-06-01T06:01:59.329Z,4.67
2019-06-01T06:04:01.390Z,7.08
2019-06-01T07:29:34.392Z,4.85
2019-06-01T07:31:36.647Z,6.37
2019-06-01T07:33:38.693Z,4.95
2019-06-01T07:35:40.908Z,7.30
2019-06-01T07:37:42.996Z,5.25
2019-06-01T07:39:45.025Z,4.90
2019-06-01T07:41:47.243Z,6.10
2019-06-01T07:46:47.126Z,5.47
2019-06-01T07:48:49.381Z,6.05
2019-06-01T07:50:51.393Z,7.75
2019-06-01T07:52:53.616Z,6.40
2019-06-01T07:54:55.688Z,6.50
2019-06-01T07:56:57.810Z,8.85
2019-06-01T07:59:01.231Z,5.67
2019-06-01T08:01:03.536Z,6.05
2019-06-01T08:03:05.578Z,7.50
2019-06-01T08:05:09.077Z,6.47
2019-06-01T08:07:11.088Z,5.42
2019-06-01T08:09:13.109Z,6.80
2019-06-01T08:11:15.190Z,5.12
2019-06-01T08:13:17.166Z,5.00
2019-06-01T08:15:19.303Z,6.50
2019-06-01T08:17:22.015Z,5.40
2019-06-01T08:19:24.256Z,8.00
2019-06-01T08:21:26.342Z,6.65
2019-06-01T08:23:28.604Z,8.78
2019-06-01T08:25:30.861Z,7.28
2019-06-01T08:27:33.209Z,3.83
2019-06-01T08:29:35.453Z,8.50
2019-06-01T08:31:37.574Z,10.40
2019-06-01T08:33:40.089Z,6.70
2019-06-01T08:35:42.247Z,4.65
2019-06-01T08:37:44.286Z,4.40
2019-06-01T08:39:46.403Z,6.10
2019-06-01T08:41:48.985Z,5.90
2019-06-01T08:43:50.985Z,7.58
2019-06-01T08:45:53.381Z,11.33
2019-06-01T08:47:55.847Z,7.58
2019-06-01T08:51:59.829Z,5.53
2019-06-01T08:54:01.894Z,9.58
2019-06-01T08:56:04.005Z,6.72
2019-06-01T08:58:06.097Z,6.97
2019-06-01T09:00:08.577Z,9.68
2019-06-01T09:04:12.409Z,4.97
2019-06-01T09:06:14.924Z,6.25
2019-06-01T09:10:18.657Z,4.37
2019-06-01T09:12:20.902Z,6.87
2019-06-01T09:14:22.960Z,7.80
2019-06-01T09:16:25.538Z,9.05
2019-06-01T09:18:27.958Z,9.53
2019-06-01T09:20:34.918Z,7.28
2019-06-01T09:22:35.816Z,7.17
2019-06-01T09:24:38.199Z,8.75
2019-06-01T09:26:40.427Z,9.10
2019-06-01T09:28:42.628Z,7.58
2019-06-01T09:30:44.720Z,6.00
2019-06-01T09:32:47.883Z,9.30
2019-06-01T09:34:49.905Z,6.60
2019-06-01T09:36:55.421Z,6.97
2019-06-01T09:38:56.086Z,7.75
2019-06-01T09:40:58.135Z,5.87
2019-06-01T09:43:00.516Z,6.10
2019-06-01T09:47:04.700Z,8.88
2019-06-01T09:49:08.556Z,6.50
2019-06-01T09:51:10.560Z,8.55
2019-06-01T09:53:13.137Z,9.40
2019-06-01T09:55:15.559Z,10.30
2019-06-01T09:59:20.568Z,6.58
2019-06-01T10:01:22.981Z,5.60
2019-06-01T10:05:28.337Z,9.85
2019-06-01T10:07:30.967Z,7.95
2019-06-01T10:09:33.627Z,6.50
2019-06-01T10:11:36.067Z,9.08
2019-06-01T10:15:40.624Z,7.20
2019-06-01T10:17:43.164Z,7.47
2019-06-01T10:21:47.394Z,10.07
2019-06-01T10:23:50.046Z,8.78
2019-06-01T10:25:52.562Z,7.05
2019-06-01T10:27:54.633Z,9.08
2019-06-01T10:29:56.695Z,10.28
2019-06-01T10:31:59.035Z,6.95
2019-06-01T10:36:19.031Z,6.87
2019-06-01T10:38:07.069Z,7.22
2019-06-01T10:40:09.419Z,5.83
2019-06-01T10:44:13.555Z,8.35
2019-06-01T10:46:15.636Z,9.00
2019-06-01T10:48:17.694Z,10.13
2019-06-01T10:50:20.056Z,7.65
2019-06-01T10:54:23.719Z,6.42
2019-06-01T10:56:27.870Z,7.60
2019-06-01T10:58:29.917Z,6.60
2019-06-01T11:00:39.818Z,9.85
2019-06-01T11:02:36.665Z,7.22
2019-06-01T11:04:38.991Z,10.38
2019-06-01T11:06:47.799Z,7.72
2019-06-01T11:08:45.583Z,9.10
2019-06-01T11:10:48.160Z,10.25
2019-06-01T11:12:50.263Z,7.83
2019-06-01T11:14:52.579Z,6.50
2019-06-01T11:18:58.498Z,7.12
2019-06-01T11:21:00.716Z,8.70
2019-06-01T11:23:03.142Z,9.75
2019-06-01T11:25:05.569Z,8.73
2019-06-01T11:27:08.756Z,7.97
2019-06-01T11:29:10.956Z,12.58
2019-06-01T11:31:13.268Z,8.78
2019-06-01T11:35:17.581Z,10.98
2019-06-01T11:37:19.804Z,7.25
2019-06-01T11:39:22.129Z,9.20
2019-06-01T11:41:24.336Z,9.95
2019-06-01T11:43:26.571Z,7.40
2019-06-01T11:45:28.837Z,6.67
2019-06-01T11:49:34.696Z,8.95
2019-06-01T11:51:37.273Z,8.38
2019-06-01T11:55:43.383Z,8.98
2019-06-01T11:57:46.057Z,9.55
2019-06-01T11:59:48.227Z,7.58
2019-06-01T12:01:50.664Z,7.50
2019-06-01T12:03:52.804Z,10.65
2019-06-01T12:05:54.809Z,9.08
2019-06-01T12:07:57.190Z,8.35
2019-06-01T12:09:59.414Z,8.13
2019-06-01T12:12:01.446Z,10.10
2019-06-01T12:14:03.750Z,11.12
2019-06-01T12:16:05.890Z,9.55
2019-06-01T12:18:07.980Z,8.95
2019-06-01T12:20:10.281Z,6.83
2019-06-01T12:22:13.528Z,8.08
2019-06-01T12:24:15.574Z,8.38
2019-06-01T12:26:17.772Z,8.90
2019-06-01T12:37:36.027Z,8.20
2019-06-01T12:39:24.404Z,9.95
2019-06-01T12:41:26.578Z,8.63
2019-06-01T12:43:28.723Z,9.40
2019-06-01T12:45:31.029Z,7.42
2019-06-01T12:47:33.162Z,8.60
2019-06-01T12:49:35.219Z,6.72
2019-06-01T12:51:37.567Z,9.80
2019-06-01T12:53:42.398Z,9.63
2019-06-01T12:55:45.241Z,11.03
2019-06-01T12:57:49.116Z,7.75
2019-06-01T12:59:51.529Z,6.75
2019-06-01T13:01:53.779Z,9.63
2019-06-01T13:03:57.026Z,8.98
2019-06-01T13:05:59.130Z,9.88
2019-06-01T13:08:03.000Z,8.83
2019-06-01T13:10:05.359Z,8.03
2019-06-01T13:12:07.790Z,6.45
2019-06-01T13:16:11.761Z,9.80
2019-06-01T13:18:13.850Z,8.45
2019-06-01T13:20:15.881Z,10.48
2019-06-01T13:22:18.194Z,9.05
2019-06-01T13:24:20.162Z,10.13
2019-06-01T13:26:22.263Z,8.83
2019-06-01T13:28:37.711Z,8.98
2019-06-01T13:30:28.829Z,10.00
2019-06-01T13:32:30.944Z,6.92
2019-06-01T13:34:34.399Z,7.95
2019-06-01T13:36:36.585Z,6.62
2019-06-01T13:38:38.961Z,8.85
2019-06-01T13:42:45.199Z,11.45
2019-06-01T13:44:47.446Z,11.97
2019-06-01T13:46:49.749Z,11.10
2019-06-01T13:48:52.748Z,9.20
2019-06-01T13:50:57.080Z,10.65
2019-06-01T13:55:01.322Z,8.98
2019-06-01T13:57:03.550Z,9.53
2019-06-01T13:59:05.808Z,8.75
2019-06-01T14:01:07.817Z,9.13
2019-06-01T14:03:10.000Z,10.32
2019-06-01T14:05:12.301Z,10.60
2019-06-01T14:07:14.381Z,10.53
2019-06-01T14:09:21.528Z,7.95
2019-06-01T14:11:21.796Z,8.18
2019-06-01T14:13:23.896Z,11.35
2019-06-01T14:15:25.992Z,11.20
2019-06-01T14:17:28.467Z,10.20
2019-06-01T14:21:33.499Z,10.82
2019-06-01T14:23:35.769Z,8.55
2019-06-01T14:25:37.849Z,9.48
2019-06-01T14:27:40.074Z,9.80
2019-06-01T14:29:42.098Z,9.03
2019-06-01T14:31:46.116Z,7.85
2019-06-01T14:33:48.644Z,8.98
2019-06-01T14:35:52.738Z,13.90
2019-06-01T14:37:55.237Z,8.38
2019-06-01T14:39:57.543Z,9.38
2019-06-01T14:41:59.689Z,10.95
2019-06-01T14:44:01.797Z,10.18
2019-06-01T14:46:03.873Z,7.72
2019-06-01T14:48:06.297Z,7.47
2019-06-01T14:52:10.513Z,9.57
2019-06-01T14:54:12.761Z,7.90
2019-06-01T14:56:15.313Z,10.90
2019-06-01T14:58:17.617Z,8.80
2019-06-01T15:00:20.677Z,10.38
2019-06-01T15:02:22.944Z,9.33
2019-06-01T15:04:25.441Z,7.45
2019-06-01T15:08:29.643Z,9.60
2019-06-01T15:10:32.011Z,10.63
2019-06-01T15:14:35.711Z,9.85
2019-06-01T15:16:37.802Z,7.97
2019-06-01T15:18:40.277Z,8.38
2019-06-01T15:20:42.590Z,7.65
2019-06-01T15:22:44.970Z,8.78
2019-06-01T15:26:50.443Z,10.28
2019-06-01T15:28:53.126Z,10.45
2019-06-01T15:30:57.029Z,10.20
2019-06-01T15:32:59.385Z,8.65
2019-06-01T15:35:03.318Z,9.95
2019-06-01T15:37:05.790Z,10.40
2019-06-01T15:39:23.542Z,8.93
2019-06-01T15:41:12.282Z,8.48
2019-06-01T15:43:14.353Z,10.80
2019-06-01T15:45:17.043Z,10.98
2019-06-01T15:47:19.092Z,9.38
2019-06-01T15:49:21.551Z,8.80
2019-06-01T15:53:25.168Z,8.75
2019-06-01T15:55:27.205Z,8.03
2019-06-01T15:57:29.266Z,7.95
2019-06-01T15:59:31.355Z,9.23
2019-06-01T16:01:33.498Z,6.10
2019-06-01T16:03:35.730Z,7.47
2019-06-01T16:05:37.786Z,5.45
2019-06-01T16:07:40.078Z,8.05
2019-06-01T16:09:43.436Z,8.83
2019-06-01T16:11:45.697Z,8.53
2019-06-01T16:13:47.929Z,8.65
2019-06-01T16:15:50.234Z,7.95
2019-06-01T16:17:53.690Z,8.45
2019-06-01T16:19:55.965Z,10.32
2019-06-01T16:22:00.243Z,8.30
2019-06-01T16:24:02.466Z,9.58
2019-06-01T16:26:15.477Z,10.05
2019-06-01T16:28:08.553Z,8.88
2019-06-01T16:30:11.410Z,9.98
2019-06-01T16:32:13.733Z,13.75
2019-06-01T16:34:15.860Z,12.73
2019-06-01T16:36:17.892Z,12.00
2019-06-01T16:38:20.240Z,8.45
2019-06-01T16:40:22.369Z,8.55
2019-06-01T16:42:24.403Z,6.28
2019-06-01T16:44:26.736Z,6.15
2019-06-01T16:46:28.866Z,7.33
2019-06-01T16:48:30.925Z,10.30
2019-06-01T16:50:33.420Z,10.80
2019-06-01T16:52:35.567Z,7.37
2019-06-01T16:54:37.619Z,6.78
2019-06-01T16:56:40.033Z,5.78
2019-06-01T17:00:44.326Z,8.37
2019-06-01T17:02:46.624Z,8.65
2019-06-01T17:04:48.670Z,8.00
2019-06-01T17:06:50.739Z,6.58
2019-06-01T17:08:53.122Z,8.63
2019-06-01T17:10:56.605Z,9.03
2019-06-01T17:13:00.251Z,9.20
2019-06-01T17:15:03.366Z,8.35
2019-06-01T17:17:07.457Z,7.80
2019-06-01T17:19:09.721Z,8.10
2019-06-01T17:21:11.935Z,8.23
2019-06-01T17:25:18.095Z,6.70
2019-06-01T17:27:20.593Z,9.28
2019-06-01T17:29:23.230Z,6.08
2019-06-01T17:33:27.385Z,5.58
2019-06-01T17:35:29.476Z,5.65
2019-06-01T17:37:32.194Z,7.83
2019-06-01T17:39:34.694Z,5.75
2019-06-01T17:41:36.780Z,8.15
2019-06-01T17:43:38.869Z,9.83
2019-06-01T17:45:41.600Z,7.67
2019-06-01T17:47:43.600Z,7.08
2019-06-01T17:49:45.654Z,8.98
2019-06-01T17:51:47.899Z,8.23
2019-06-01T17:53:53.138Z,8.90
2019-06-01T17:55:54.174Z,11.12
2019-06-01T17:57:56.720Z,9.20
2019-06-01T18:02:01.783Z,8.00
2019-06-01T18:04:05.920Z,9.83
2019-06-01T18:06:09.932Z,7.25
2019-06-01T18:08:13.640Z,9.03
2019-06-01T18:10:16.172Z,7.37
2019-06-01T18:12:18.279Z,5.50
2019-06-01T18:14:20.600Z,6.75
2019-06-01T18:18:24.798Z,6.35
2019-06-01T18:20:27.032Z,8.05
2019-06-01T18:22:29.574Z,7.20
2019-06-01T18:24:31.712Z,5.42
2019-06-01T18:26:33.797Z,5.75
2019-06-01T18:28:36.160Z,6.10
2019-06-01T18:30:38.555Z,5.10
2019-06-01T18:32:40.995Z,6.85
2019-06-01T18:34:43.045Z,5.47
2019-06-01T18:36:45.256Z,6.05
2019-06-01T18:38:47.670Z,6.75
2019-06-01T18:40:49.790Z,6.65
2019-06-01T18:42:57.236Z,5.90
2019-06-01T18:45:01.037Z,7.97
2019-06-01T18:47:03.793Z,8.08
2019-06-01T18:49:06.205Z,9.25
2019-06-01T18:51:10.112Z,8.45
2019-06-01T18:53:14.165Z,5.53
2019-06-01T18:55:16.732Z,6.67
2019-06-01T18:59:23.835Z,5.90
2019-06-01T19:01:26.845Z,10.10
2019-06-01T19:03:29.035Z,8.85
2019-06-01T19:05:31.518Z,7.55
2019-06-01T19:09:36.597Z,8.38
2019-06-01T19:11:40.512Z,9.85
2019-06-01T19:13:44.690Z,9.98
2019-06-01T19:15:46.914Z,10.15
2019-06-01T19:17:49.210Z,13.85
2019-06-01T19:19:51.447Z,10.90
2019-06-01T19:21:54.326Z,9.75
2019-06-01T19:23:56.809Z,11.80
2019-06-01T19:25:58.966Z,11.65
2019-06-01T19:28:01.022Z,9.00
2019-06-01T19:30:04.999Z,12.05
2019-06-01T19:32:08.699Z,13.43
2019-06-01T19:34:11.521Z,12.18
2019-06-01T19:36:13.704Z,13.98
2019-06-01T19:40:27.435Z,12.50
2019-06-01T19:42:29.960Z,13.60
2019-06-01T19:44:32.374Z,10.78
2019-06-01T19:48:38.289Z,11.90
2019-06-01T19:50:41.606Z,9.80
2019-06-01T19:52:43.762Z,12.53
2019-06-01T19:54:45.981Z,10.65
2019-06-01T19:56:48.425Z,11.05
2019-06-01T20:00:52.401Z,12.18
2019-06-01T20:02:54.479Z,17.10
2019-06-01T20:04:56.529Z,12.20
2019-06-01T20:06:59.525Z,12.75
2019-06-01T20:09:01.571Z,14.53
2019-06-01T20:11:05.575Z,14.35
2019-06-01T20:13:08.333Z,13.28
2019-06-01T20:15:11.474Z,15.93
2019-06-01T20:17:17.832Z,11.63
2019-06-01T20:19:20.261Z,14.20
2019-06-01T20:21:23.926Z,13.53
2019-06-01T20:23:26.582Z,15.48
2019-06-01T20:25:30.742Z,14.87
2019-06-01T20:27:34.960Z,14.33
2019-06-01T20:29:38.008Z,14.87
2019-06-01T20:31:40.182Z,12.90
2019-06-01T20:33:42.804Z,15.72
2019-06-01T20:37:46.752Z,13.13
2019-06-01T20:39:48.824Z,18.87
2019-06-01T20:41:51.406Z,11.95
2019-06-01T20:45:57.252Z,18.17
2019-06-01T20:48:00.943Z,15.05
2019-06-01T20:52:06.716Z,20.05
2019-06-01T20:54:09.788Z,14.13
2019-06-01T20:56:13.329Z,20.45
2019-06-01T20:58:16.235Z,16.52
2019-06-01T21:00:21.739Z,17.98
2019-06-01T21:02:25.035Z,18.02
2019-06-01T21:04:27.307Z,18.77
2019-06-01T21:06:29.802Z,18.30
2019-06-01T21:10:34.212Z,14.80
2019-06-01T21:12:44.877Z,14.78
2019-06-01T21:14:41.190Z,16.10
2019-06-01T21:16:43.673Z,16.73
2019-06-01T21:20:48.432Z,19.65
2019-06-01T21:22:50.868Z,21.17
2019-06-01T21:24:54.110Z,21.55
2019-06-01T21:26:56.565Z,24.60
2019-06-01T21:31:00.708Z,23.92
2019-06-01T21:33:03.979Z,19.45
2019-06-01T21:35:06.581Z,15.10
2019-06-01T21:37:09.092Z,21.37
2019-06-01T21:39:11.499Z,22.10
2019-06-01T21:44:31.710Z,21.35
2019-06-01T21:46:33.861Z,14.65
2019-06-01T21:48:36.014Z,18.75
2019-06-01T21:50:38.898Z,18.17
2019-06-01T21:52:41.095Z,18.55
2019-06-01T21:54:43.409Z,19.75
2019-06-01T21:56:46.199Z,19.35
2019-06-01T21:58:48.607Z,25.25
2019-06-01T22:02:54.860Z,17.90
2019-06-01T22:04:57.091Z,17.17
2019-06-01T22:06:59.797Z,18.25
2019-06-01T22:11:05.983Z,17.25
2019-06-01T22:15:12.089Z,16.23
2019-06-01T22:17:14.116Z,16.62
2019-06-01T22:19:17.465Z,16.57
2019-06-01T22:21:20.084Z,18.60
2019-06-01T22:25:24.079Z,15.83
2019-06-01T22:27:26.478Z,18.95
2019-06-01T22:31:30.881Z,19.60
2019-06-01T22:33:33.451Z,19.60
2019-06-01T22:35:35.612Z,18.20
2019-06-01T22:37:37.673Z,18.57
2019-06-01T22:39:40.076Z,22.05
2019-06-01T22:41:42.496Z,19.82
2019-06-01T22:43:47.121Z,19.62
2019-06-01T22:45:49.678Z,19.62
2019-06-01T22:49:53.635Z,20.08
2019-06-01T22:51:56.043Z,21.10
2019-06-01T22:53:58.098Z,20.40
2019-06-01T22:56:00.172Z,25.02
2019-06-01T22:58:02.268Z,20.92
2019-06-01T23:00:04.892Z,24.65
2019-06-01T23:02:07.218Z,22.73
2019-06-01T23:04:09.290Z,20.92
2019-06-01T23:06:11.594Z,23.10
2019-06-01T23:10:16.023Z,21.20
2019-06-01T23:14:21.260Z,17.87
2019-06-01T23:16:23.743Z,21.12
2019-06-01T23:18:25.879Z,19.40
2019-06-01T23:20:28.013Z,27.13
2019-06-01T23:22:30.552Z,23.90
2019-06-01T23:24:32.632Z,22.80
2019-06-01T23:26:34.706Z,22.55
2019-06-01T23:28:38.777Z,23.32
2019-06-01T23:30:41.686Z,23.35
2019-06-01T23:32:43.752Z,22.17
2019-06-01T23:34:46.309Z,23.73
2019-06-01T23:36:49.355Z,21.65
2019-06-01T23:38:51.416Z,21.55
2019-06-01T23:40:53.806Z,26.57
2019-06-01T23:44:57.495Z,23.22
2019-06-01T23:46:59.705Z,21.97
2019-06-01T23:49:01.757Z,25.55
2019-06-01T23:51:03.780Z,24.77
2019-06-01T23:53:13.791Z,24.30
2019-06-01T23:55:10.167Z,23.98
2019-06-01T23:57:12.809Z,23.10
2019-06-01T23:59:14.852Z,26.70
